Time;durP1;ratioP1;P1;durP2;ratioP2;P2;SDS_P1;SDS_P2;PMS_P1;PMS_P2;Temp;Humidity;BMP_temperature;BMP_pressure;BME280_temperature;BME280_humidity;BME280_pressure;Samples;Min_cycle;Max_cycle;Signal;HPM_P1;HPM_P2
2021/05/05 00:01:35;;;;;;;5.85;1.85;;;7.10;99.90;;;8.02;73.97;99011.72;6158110;23;20087;-84
2021/05/05 00:04:01;;;;;;;7.20;2.25;;;7.10;99.90;;;8.04;73.84;99022.44;6159040;23;20013;-81
2021/05/05 00:06:27;;;;;;;4.50;2.05;;;7.00;99.90;;;7.97;74.07;99012.84;6185201;23;20469;-81
2021/05/05 00:08:53;;;;;;;3.17;1.73;;;7.00;99.90;;;7.92;74.33;99013.22;6185392;23;20005;-81
2021/05/05 00:11:20;;;;;;;5.32;2.17;;;7.10;99.90;;;8.10;73.55;99016.16;6183565;23;20009;-81
2021/05/05 00:13:46;;;;;;;5.88;2.05;;;7.10;99.90;;;8.05;74.10;99010.97;6184888;23;20005;-84
2021/05/05 00:16:11;;;;;;;6.60;2.38;;;7.10;99.90;;;7.94;74.07;99005.28;6186388;23;20420;-80
2021/05/05 00:18:37;;;;;;;3.00;1.80;;;7.10;99.90;;;8.12;73.95;99013.03;6183415;23;20002;-82
2021/05/05 00:21:05;;;;;;;5.20;1.90;;;7.10;99.90;;;8.11;73.89;99025.31;6185384;23;20005;-81
2021/05/05 00:23:31;;;;;;;6.78;2.28;;;7.10;99.90;;;8.08;74.31;99014.97;6184834;23;20009;-80
2021/05/05 00:25:56;;;;;;;5.22;2.03;;;7.10;99.90;;;8.07;74.18;99016.13;6185022;23;20347;-81
2021/05/05 00:28:22;;;;;;;5.15;2.22;;;7.10;99.90;;;8.01;74.33;99012.91;6184874;23;20403;-82
2021/05/05 00:30:49;;;;;;;4.30;1.83;;;7.10;99.90;;;8.04;74.15;99017.69;6158740;23;20017;-80
2021/05/05 00:33:15;;;;;;;5.60;1.85;;;7.10;99.90;;;8.18;73.31;99017.06;6185396;23;20024;-79
2021/05/05 00:35:40;;;;;;;4.95;1.92;;;7.20;99.90;;;8.22;73.51;99018.69;6158657;23;20092;-81
2021/05/05 00:38:09;;;;;;;3.50;1.65;;;7.20;99.90;;;8.21;73.45;99010.72;6158629;23;20470;-81
2021/05/05 00:40:36;;;;;;;4.05;1.92;;;7.20;99.90;;;8.06;73.58;99011.78;6158986;23;20020;-79
2021/05/05 00:43:02;;;;;;;2.10;1.38;;;7.20;99.90;;;7.97;73.13;99012.06;6184134;23;20093;-78
2021/05/05 00:45:27;;;;;;;4.25;1.77;;;7.10;99.90;;;8.02;73.25;99010.94;6185639;23;20421;-79
2021/05/05 00:47:53;;;;;;;2.42;1.55;;;7.10;99.90;;;8.11;73.13;99014.19;6158939;23;20017;-84
2021/05/05 00:50:19;;;;;;;4.00;1.92;;;7.10;99.90;;;7.95;73.53;99017.22;6160315;23;20189;-80
2021/05/05 00:52:46;;;;;;;6.13;1.80;;;7.10;99.90;;;7.92;73.79;99024.34;6186731;23;20037;-80
2021/05/05 00:55:14;;;;;;;5.50;1.98;;;7.00;99.90;;;8.04;72.98;99014.13;6160585;23;20009;-81
2021/05/05 00:57:41;;;;;;;3.95;1.65;;;7.10;99.90;;;8.03;73.16;99006.97;6186483;23;20005;-79
2021/05/05 01:00:10;;;;;;;5.70;1.90;;;7.10;99.90;;;8.08;72.65;99028.88;6186628;23;20009;-82
2021/05/05 01:02:37;;;;;;;3.65;1.77;;;7.20;99.90;;;8.15;72.59;99013.06;6164152;23;20005;-80
2021/05/05 01:05:07;;;;;;;5.18;1.77;;;7.20;99.90;;;8.00;72.48;99010.50;6165252;23;20335;-80
2021/05/05 01:07:35;;;;;;;3.33;1.60;;;7.20;99.90;;;7.91;72.75;99011.59;6190831;23;20004;-81
2021/05/05 01:10:07;;;;;;;4.93;1.63;;;7.10;99.90;;;7.81;73.05;99009.50;6189250;23;20005;-80
2021/05/05 01:12:33;;;;;;;3.33;1.30;;;7.00;99.90;;;7.99;72.27;99012.50;6159358;23;20012;-80
2021/05/05 01:14:59;;;;;;;4.35;1.30;;;6.90;99.90;;;7.86;72.53;99009.19;6184999;23;20029;-82
2021/05/05 01:17:25;;;;;;;2.88;1.48;;;7.00;99.90;;;7.86;72.78;99020.28;6159820;23;20016;-81
2021/05/05 01:19:51;;;;;;;6.22;1.52;;;7.00;99.90;;;7.92;72.23;99027.09;6186715;23;20005;-79
2021/05/05 01:22:17;;;;;;;3.28;1.45;;;7.00;99.90;;;7.95;71.99;99020.00;6159572;23;20017;-81
2021/05/05 01:24:43;;;;;;;3.92;1.40;;;7.10;99.90;;;8.04;71.66;99014.91;6185801;23;20013;-81
2021/05/05 01:27:09;;;;;;;4.28;1.50;;;7.10;99.90;;;7.99;71.56;99015.28;6159327;23;20001;-81
2021/05/05 01:29:38;;;;;;;4.93;1.65;;;7.10;99.90;;;8.00;72.29;99011.28;6186125;23;20005;-80
2021/05/05 01:32:06;;;;;;;3.53;1.65;;;7.10;99.90;;;7.88;73.25;99011.56;6185901;23;20023;-80
2021/05/05 01:34:34;;;;;;;2.88;1.70;;;7.10;99.90;;;7.72;74.23;99017.34;6186260;23;20001;-82
2021/05/05 01:37:02;;;;;;;3.97;1.88;;;6.90;99.90;;;7.73;74.09;99020.91;6186266;23;20029;-82
2021/05/05 01:39:28;;;;;;;3.13;2.05;;;6.80;99.90;;;7.70;74.28;99007.78;6186215;23;20008;-82
2021/05/05 01:41:57;;;;;;;6.25;1.80;;;6.70;99.90;;;7.51;74.85;99008.75;6184591;23;20002;-81
2021/05/05 01:44:39;;;;;;;5.13;1.90;;;6.70;99.90;;;7.53;74.56;99011.94;6187153;23;20001;-85
2021/05/05 01:47:11;;;;;;;3.83;1.58;;;6.60;99.90;;;7.52;74.18;99004.75;6201018;23;20048;-80
2021/05/05 01:49:45;;;;;;;5.35;1.90;;;6.50;99.90;;;7.50;74.85;99015.47;6204751;23;20001;-82
2021/05/05 01:52:13;;;;;;;3.78;1.70;;;6.50;99.90;;;7.57;74.22;99012.78;6181116;23;20020;-83
2021/05/05 01:54:39;;;;;;;4.60;1.80;;;6.50;99.90;;;7.62;74.07;99008.84;6205680;23;20004;-83
2021/05/05 01:57:36;;;;;;;4.13;1.70;;;6.60;99.90;;;7.64;73.31;99010.06;6207771;23;20005;-82
2021/05/05 02:00:12;;;;;;;2.65;1.52;;;6.60;99.90;;;7.70;72.85;99013.34;6207747;23;20008;-81
2021/05/05 02:02:39;;;;;;;3.33;1.38;;;6.60;99.90;;;7.67;73.52;99019.66;6182598;23;20005;-80
2021/05/05 02:05:07;;;;;;;4.65;1.83;;;6.60;99.90;;;7.66;73.62;99018.84;6187166;23;20108;-81
2021/05/05 02:07:34;;;;;;;3.38;1.73;;;6.60;99.90;;;7.67;73.67;99009.34;6186171;23;20459;-80
2021/05/05 02:10:00;;;;;;;3.08;1.70;;;6.60;99.90;;;7.67;73.53;99005.75;6185519;23;20033;-81
2021/05/05 02:12:30;;;;;;;3.55;1.77;;;6.60;99.90;;;7.70;73.46;99008.59;6186016;23;20005;-81
2021/05/05 02:14:56;;;;;;;4.45;2.22;;;6.60;99.90;;;7.71;73.83;99007.38;6184346;23;20246;-80
2021/05/05 02:17:22;;;;;;;3.70;2.10;;;6.70;99.90;;;7.81;73.43;99009.50;6185981;23;20112;-78
2021/05/05 02:19:50;;;;;;;6.78;2.00;;;6.60;99.90;;;7.66;73.84;99013.28;6185776;23;20009;-80
2021/05/05 02:22:16;;;;;;;5.95;2.45;;;6.70;99.90;;;7.69;73.88;99012.53;6159824;23;20556;-82
2021/05/05 02:24:42;;;;;;;3.45;2.33;;;6.60;99.90;;;7.66;75.09;99013.28;6185844;23;20008;-81
2021/05/05 02:27:09;;;;;;;4.75;2.38;;;6.60;99.90;;;7.58;76.46;99013.59;6185188;23;20013;-81
2021/05/05 02:29:35;;;;;;;4.15;2.42;;;6.60;99.90;;;7.59;76.53;99018.75;6183025;23;20413;-80
2021/05/05 02:32:10;;;;;;;5.78;2.65;;;6.50;99.90;;;7.49;77.63;99018.59;6185102;23;20531;-80
2021/05/05 02:34:37;;;;;;;3.65;2.40;;;6.50;99.90;;;7.35;77.99;99013.69;6183355;23;20486;-81
2021/05/05 02:37:09;;;;;;;5.07;3.17;;;6.40;99.90;;;7.48;77.58;99006.69;6185187;23;20369;-82
2021/05/05 02:39:41;;;;;;;5.95;3.30;;;6.40;99.90;;;7.41;78.33;99004.66;6185977;23;20005;-80
2021/05/05 02:42:15;;;;;;;6.85;3.20;;;6.30;99.90;;;7.22;77.96;98996.47;6185484;23;20439;-78
2021/05/05 02:44:44;;;;;;;6.57;2.95;;;6.30;99.90;;;7.42;77.38;99005.41;6183434;23;20005;-82
2021/05/05 02:47:12;;;;;;;3.80;2.88;;;6.30;99.90;;;7.25;78.02;99015.13;6185182;23;20027;-81
2021/05/05 02:49:38;;;;;;;4.70;3.20;;;6.30;99.90;;;7.24;78.38;98994.09;6185104;23;20335;-81
2021/05/05 02:52:05;;;;;;;4.05;3.55;;;6.30;99.90;;;7.25;78.07;98998.47;6165768;23;20339;-82
2021/05/05 02:54:33;;;;;;;4.10;3.58;;;6.30;99.90;;;7.37;77.98;99005.75;6208928;23;20011;-80
2021/05/05 02:57:00;;;;;;;6.75;3.67;;;6.30;99.90;;;7.31;77.85;99001.72;6183853;23;20004;-83
2021/05/05 02:59:27;;;;;;;5.07;4.13;;;6.20;99.90;;;7.25;78.18;98998.47;6186895;23;20032;-82
2021/05/05 03:01:56;;;;;;;7.10;3.53;;;6.20;99.90;;;7.22;78.40;98999.22;6208452;23;20035;-81
2021/05/05 03:04:24;;;;;;;7.40;3.70;;;6.30;99.90;;;7.14;78.77;99010.59;6209203;23;20016;-81
2021/05/05 03:06:51;;;;;;;3.45;2.80;;;6.20;99.90;;;7.10;78.55;99004.19;6186044;23;20454;-80
2021/05/05 03:09:25;;;;;;;9.05;3.10;;;6.10;99.90;;;6.99;78.27;99001.28;6185520;23;20017;-79
2021/05/05 03:11:58;;;;;;;7.05;3.00;;;6.10;99.90;;;7.01;78.00;99000.88;6185078;23;20005;-81
2021/05/05 03:14:29;;;;;;;8.38;3.30;;;6.00;99.90;;;6.68;79.21;99009.88;6183820;23;20028;-79
2021/05/05 03:16:57;;;;;;;4.90;2.67;;;5.90;99.90;;;6.76;78.90;99009.63;6185174;23;20435;-80
2021/05/05 03:19:51;;;;;;;4.22;2.72;;;5.80;99.90;;;6.70;79.40;99010.31;6208622;23;20036;-82
2021/05/05 03:22:19;;;;;;;4.32;2.90;;;5.80;99.90;;;6.70;78.79;99010.31;6204373;23;20017;-80
2021/05/05 03:24:46;;;;;;;5.15;2.88;;;5.70;99.90;;;6.69;78.94;99009.53;6208444;23;20008;-79
2021/05/05 03:27:12;;;;;;;5.30;3.20;;;5.70;99.90;;;6.51;79.88;99008.44;6183965;23;20009;-80
2021/05/05 03:29:38;;;;;;;4.55;2.63;;;5.70;99.90;;;6.45;79.38;99011.88;6183955;23;20079;-82
2021/05/05 03:32:05;;;;;;;6.07;3.28;;;5.70;99.90;;;6.53;79.56;99014.41;6207795;23;20435;-80
2021/05/05 03:34:32;;;;;;;6.32;3.40;;;5.60;99.90;;;6.47;79.76;99013.13;6208147;23;20013;-82
2021/05/05 03:37:10;;;;;;;;;;;;;;;;;;;;;
2021/05/05 03:39:36;;;;;;;4.13;2.60;;;5.60;99.90;;;6.51;79.07;99002.09;6185398;23;20104;-83
2021/05/05 03:42:03;;;;;;;8.20;3.05;;;5.60;99.90;;;6.48;79.14;98987.00;6209143;23;20005;-82
2021/05/05 03:44:28;;;;;;;3.53;3.17;;;5.60;99.90;;;6.39;79.17;98991.19;6185831;23;20435;-80
2021/05/05 03:46:54;;;;;;;3.45;2.90;;;5.60;99.90;;;6.40;79.31;99001.09;6209218;23;20035;-80
2021/05/05 03:49:21;;;;;;;4.18;2.97;;;5.60;99.90;;;6.48;79.25;98988.97;6211266;23;20032;-83
2021/05/05 03:51:48;;;;;;;4.38;3.10;;;5.50;99.90;;;6.51;79.38;98994.56;6187568;23;20399;-80
2021/05/05 03:54:16;;;;;;;4.90;3.53;;;5.50;99.90;;;6.46;79.66;98992.09;6187777;23;20008;-79
2021/05/05 03:56:43;;;;;;;4.93;3.92;;;5.50;99.90;;;6.43;79.77;98994.78;6188790;23;20005;-80
2021/05/05 03:59:09;;;;;;;6.78;4.57;;;5.40;99.90;;;6.31;80.43;98999.38;6188887;23;20009;-81
2021/05/05 04:01:35;;;;;;;8.48;5.75;;;5.40;99.90;;;6.40;80.60;99001.88;6186259;23;20005;-80
2021/05/05 04:04:01;;;;;;;8.40;5.30;;;5.40;99.90;;;6.32;81.07;99009.28;6159825;23;20009;-79
2021/05/05 04:06:27;;;;;;;6.72;5.43;;;5.40;99.90;;;6.36;80.89;99017.66;6190297;23;20009;-82
2021/05/05 04:08:53;;;;;;;8.27;5.35;;;5.40;99.90;;;6.39;81.55;99013.38;6207933;23;19993;-77
2021/05/05 04:11:19;;;;;;;8.13;6.00;;;5.40;99.90;;;6.44;81.53;99016.63;6195570;23;20313;-79
2021/05/05 04:13:46;;;;;;;9.60;6.75;;;5.50;99.90;;;6.66;80.53;99010.25;6185353;23;20013;-79
2021/05/05 04:16:17;;;;;;;7.10;5.85;;;5.60;99.90;;;6.66;81.01;99015.00;6185594;23;20338;-80
2021/05/05 04:18:43;;;;;;;9.13;5.70;;;5.60;99.90;;;6.67;80.98;99017.41;6161433;23;20021;-82
2021/05/05 04:21:10;;;;;;;11.02;5.68;;;5.70;99.90;;;6.77;80.47;99016.78;6185251;23;20016;-82
2021/05/05 04:23:37;;;;;;;10.77;5.93;;;5.70;99.90;;;6.67;80.28;99022.16;6161177;23;20023;-81
2021/05/05 04:26:05;;;;;;;10.05;5.85;;;5.80;99.90;;;6.84;80.01;99021.63;6187180;23;20407;-81
2021/05/05 04:28:31;;;;;;;9.45;6.07;;;5.90;99.90;;;6.88;79.75;99028.84;6187021;23;20096;-83
2021/05/05 04:30:58;;;;;;;7.90;5.43;;;5.90;99.90;;;7.01;79.42;99034.19;6188576;23;20340;-80
2021/05/05 04:33:25;;;;;;;10.32;5.00;;;5.90;99.90;;;7.08;78.89;99042.63;6162004;23;20012;-80
2021/05/05 04:35:51;;;;;;;10.07;5.68;;;6.00;99.90;;;6.88;79.73;99028.84;6161887;23;20084;-82
2021/05/05 04:38:17;;;;;;;10.77;5.82;;;6.00;99.90;;;6.99;79.39;99036.53;6189579;23;20005;-82
2021/05/05 04:40:43;;;;;;;7.55;5.85;;;6.10;99.90;;;7.16;78.66;99041.56;6188350;23;20351;-81
2021/05/05 04:43:09;;;;;;;7.35;5.28;;;6.10;99.90;;;7.21;78.98;99046.78;6211072;23;20013;-78
2021/05/05 04:45:35;;;;;;;9.32;5.30;;;6.20;99.90;;;7.40;77.96;99060.56;6187016;23;20012;-78
2021/05/05 04:48:01;;;;;;;8.65;5.43;;;6.20;99.90;;;7.31;78.18;99066.41;6212969;23;20008;-80
2021/05/05 04:50:27;;;;;;;8.23;6.22;;;6.20;99.90;;;7.32;77.58;99058.88;6211528;23;20013;-78
2021/05/05 04:52:53;;;;;;;9.13;6.55;;;6.20;99.90;;;7.27;77.62;99056.41;6200094;23;20048;-83
2021/05/05 04:55:19;;;;;;;10.23;6.70;;;6.30;99.90;;;7.45;77.21;99065.00;6189209;23;20008;-79
2021/05/05 04:57:46;;;;;;;8.80;6.13;;;6.30;99.90;;;7.57;77.23;99070.31;6212856;23;20112;-81
2021/05/05 05:00:13;;;;;;;9.93;6.22;;;6.40;99.90;;;7.45;77.42;99065.00;6188744;23;20096;-79
2021/05/05 05:02:39;;;;;;;9.18;5.47;;;6.40;99.90;;;7.53;77.03;99080.56;6187854;23;20013;-81
2021/05/05 05:05:06;;;;;;;7.50;5.18;;;6.40;99.90;;;7.47;76.48;99079.31;6212821;23;20043;-79
2021/05/05 05:07:33;;;;;;;12.07;5.28;;;6.40;99.90;;;7.54;76.52;99074.66;6189899;23;20060;-78
2021/05/05 05:09:59;;;;;;;11.32;6.50;;;6.40;99.90;;;7.52;76.65;99081.75;6188019;23;20040;-79
2021/05/05 05:12:26;;;;;;;9.27;5.85;;;6.40;99.90;;;7.43;77.11;99077.28;6186350;23;20020;-80
2021/05/05 05:14:53;;;;;;;10.73;6.47;;;6.40;99.90;;;7.54;77.59;99087.75;6187231;23;20454;-79
2021/05/05 05:17:19;;;;;;;9.27;7.30;;;6.40;99.90;;;7.54;77.46;99096.88;6189880;23;20431;-78
2021/05/05 05:19:46;;;;;;;12.88;7.63;;;6.50;99.90;;;7.62;77.51;99090.22;6190258;23;20386;-79
2021/05/05 05:22:13;;;;;;;10.65;7.50;;;6.50;99.90;;;7.57;77.28;99103.66;6191667;23;20059;-81
2021/05/05 05:24:39;;;;;;;13.00;8.13;;;6.50;99.90;;;7.49;77.67;99091.63;6190012;23;20002;-81
2021/05/05 05:27:05;;;;;;;18.15;8.32;;;6.50;99.90;;;7.71;77.00;99098.28;6214435;23;20478;-81
2021/05/05 05:29:34;;;;;;;10.77;7.53;;;6.50;99.90;;;7.55;77.28;99108.78;6189467;23;20056;-80
2021/05/05 05:32:00;;;;;;;9.57;7.45;;;6.50;99.90;;;7.56;77.52;99111.19;6188898;23;20035;-78
2021/05/05 05:34:26;;;;;;;11.73;7.82;;;6.50;99.90;;;7.50;77.53;99111.88;6189747;23;20431;-82
2021/05/05 05:36:51;;;;;;;11.20;7.97;;;6.50;99.90;;;7.48;78.11;99108.69;6188358;23;20340;-80
2021/05/05 05:39:17;;;;;;;12.23;7.90;;;6.50;99.90;;;7.72;77.49;99111.81;6185776;23;20424;-82
2021/05/05 05:41:43;;;;;;;14.10;7.85;;;6.60;99.90;;;7.83;76.81;99109.19;6212366;23;20048;-84
2021/05/05 05:44:09;;;;;;;8.82;6.80;;;6.70;99.90;;;7.72;76.76;99111.81;6187670;23;20016;-80
2021/05/05 05:46:38;;;;;;;13.27;8.02;;;6.70;99.90;;;7.75;77.30;99113.03;6211808;23;20012;-80
2021/05/05 05:49:08;;;;;;;11.27;7.85;;;6.70;99.90;;;7.90;76.58;99117.59;6187716;23;20005;-82
2021/05/05 05:51:35;;;;;;;10.05;6.90;;;6.80;99.90;;;7.97;75.90;99109.34;6188206;23;20032;-80
2021/05/05 05:54:04;;;;;;;8.63;7.15;;;7.00;99.90;;;8.20;75.08;99121.16;6184416;23;20443;-80
2021/05/05 05:56:30;;;;;;;11.30;7.30;;;7.10;99.90;;;8.44;74.88;99122.69;6188689;23;20001;-81
2021/05/05 05:58:57;;;;;;;11.02;7.45;;;7.20;99.90;;;8.27;75.06;99118.47;6162051;23;20558;-82
2021/05/05 06:01:23;;;;;;;11.13;7.22;;;7.20;99.90;;;8.31;74.86;99124.13;6162625;23;20009;-80
2021/05/05 06:03:48;;;;;;;12.35;7.70;;;7.20;99.90;;;8.22;74.59;99123.59;6162020;23;20013;-81
2021/05/05 06:06:14;;;;;;;10.70;7.72;;;7.20;99.90;;;8.15;75.91;99117.94;6189064;23;20016;-83
2021/05/05 06:08:40;;;;;;;8.77;7.13;;;7.10;99.90;;;8.01;76.06;99123.31;6189138;23;20012;-83
2021/05/05 06:11:06;;;;;;;10.55;7.32;;;7.00;99.90;;;7.91;76.39;99127.53;6162507;23;20012;-82
2021/05/05 06:13:32;;;;;;;10.93;7.38;;;6.90;99.90;;;7.78;77.53;99126.16;6165331;23;20009;-80
2021/05/05 06:15:59;;;;;;;10.43;5.85;;;6.80;99.90;;;7.28;78.67;99144.91;6189901;23;20032;-80
2021/05/05 06:18:25;;;;;;;10.52;6.10;;;6.60;99.90;;;7.25;79.65;99150.41;6188554;23;20048;-79
2021/05/05 06:20:52;;;;;;;7.15;3.88;;;6.40;99.90;;;7.12;80.96;99157.31;6188861;23;20009;-81
2021/05/05 06:23:18;;;;;;;8.35;4.55;;;6.30;99.90;;;7.25;81.97;99172.59;6192050;23;20005;-80
2021/05/05 06:25:44;;;;;;;7.95;3.40;;;6.10;99.90;;;6.93;82.94;99171.25;6189520;23;20008;-79
2021/05/05 06:28:10;;;;;;;6.85;3.35;;;6.00;99.90;;;6.79;83.16;99164.28;6189140;23;20458;-81
2021/05/05 06:30:36;;;;;;;4.68;3.40;;;5.80;99.90;;;6.81;83.56;99170.25;6186714;23;20009;-83
2021/05/05 06:33:03;;;;;;;8.13;4.00;;;5.70;99.90;;;6.86;84.84;99177.47;6198357;23;20016;-78
2021/05/05 06:35:29;;;;;;;8.88;4.72;;;5.70;99.90;;;6.77;85.50;99166.63;6202558;23;20076;-78
2021/05/05 06:37:55;;;;;;;8.80;4.93;;;5.60;99.90;;;6.80;86.54;99165.88;6184734;23;20033;-81
2021/05/05 06:40:22;;;;;;;7.78;5.28;;;5.60;99.90;;;6.77;86.30;99177.72;6184045;23;20036;-78
2021/05/05 06:42:48;;;;;;;9.20;5.00;;;5.60;99.90;;;6.64;86.06;99187.38;6186117;23;20013;-81
2021/05/05 06:45:15;;;;;;;9.40;3.67;;;5.50;99.90;;;6.40;86.74;99198.78;6185467;23;20035;-80
2021/05/05 06:47:40;;;;;;;6.93;3.63;;;5.50;99.90;;;6.34;87.82;99194.69;6185004;23;20013;-81
2021/05/05 06:50:09;;;;;;;8.50;3.83;;;5.40;99.90;;;6.10;87.90;99192.22;6158946;23;20087;-81
2021/05/05 06:52:36;;;;;;;6.82;4.78;;;5.30;99.90;;;6.41;87.49;99196.81;6172503;23;20013;-81
2021/05/05 06:55:04;;;;;;;9.10;4.80;;;5.30;99.90;;;6.40;86.89;99203.50;6209094;23;20019;-81
2021/05/05 06:57:29;;;;;;;5.88;4.53;;;5.20;99.90;;;6.33;86.59;99193.06;6210277;23;20005;-82
2021/05/05 06:59:55;;;;;;;5.70;4.38;;;5.30;99.90;;;6.26;87.30;99196.50;6187620;23;20115;-80
2021/05/05 07:02:22;;;;;;;6.28;4.28;;;5.30;99.90;;;6.31;87.05;99199.00;6187198;23;20431;-81
2021/05/05 07:04:49;;;;;;;6.30;4.82;;;5.20;99.90;;;6.18;87.41;99214.16;6184988;23;20009;-81
2021/05/05 07:07:15;;;;;;;7.55;4.28;;;5.20;99.90;;;5.89;87.89;99214.72;6185944;23;20380;-81
2021/05/05 07:09:41;;;;;;;8.52;5.65;;;5.10;99.90;;;6.01;88.79;99225.66;6186075;23;20005;-82
2021/05/05 07:12:07;;;;;;;5.78;4.22;;;5.00;99.90;;;5.80;88.27;99227.94;6184377;23;20013;-83
2021/05/05 07:14:33;;;;;;;3.72;3.22;;;4.90;99.90;;;5.62;87.84;99240.56;6188142;23;20024;-81
2021/05/05 07:16:59;;;;;;;7.18;4.03;;;4.70;99.90;;;5.48;88.69;99229.13;6210526;23;20372;-82
2021/05/05 07:19:25;;;;;;;6.13;4.55;;;4.60;99.90;;;5.41;88.76;99220.66;6210557;23;20004;-80
2021/05/05 07:21:51;;;;;;;5.15;4.65;;;4.50;99.90;;;5.29;89.45;99218.78;6186246;23;20012;-79
2021/05/05 07:24:17;;;;;;;6.32;5.50;;;4.40;99.90;;;5.43;89.27;99219.13;6210006;23;20351;-81
2021/05/05 07:26:43;;;;;;;7.30;6.53;;;4.50;99.90;;;5.43;89.79;99219.13;6186989;23;20012;-80
2021/05/05 07:29:09;;;;;;;9.05;6.32;;;4.60;99.90;;;5.73;89.60;99225.81;6185044;23;20076;-80
2021/05/05 07:31:35;;;;;;;9.02;6.72;;;4.60;99.90;;;5.83;89.08;99225.25;6184721;23;20008;-78
2021/05/05 07:34:01;;;;;;;9.88;6.30;;;4.80;99.90;;;6.05;88.38;99234.06;6210659;23;20100;-83
2021/05/05 07:36:28;;;;;;;8.10;5.88;;;4.90;99.90;;;6.03;88.33;99242.75;6209852;23;20444;-81
2021/05/05 07:47:16;;;;;;;7.38;5.00;;;5.50;99.90;;;7.09;86.52;99233.00;6186866;23;20019;-83
2021/05/05 07:49:48;;;;;;;5.93;4.60;;;5.90;99.90;;;7.37;85.89;99239.88;6209563;23;20409;-82
2021/05/05 07:52:14;;;;;;;5.45;4.50;;;6.20;99.90;;;7.47;85.20;99246.78;6185851;23;20009;-79
2021/05/05 07:54:40;;;;;;;7.10;4.72;;;6.40;99.90;;;7.51;85.06;99242.09;6184656;23;20491;-80
2021/05/05 07:57:07;;;;;;;9.23;5.30;;;6.50;99.90;;;7.78;85.34;99252.03;6160365;23;20036;-79
2021/05/05 07:59:33;;;;;;;8.63;5.93;;;6.60;99.90;;;7.90;83.83;99251.03;6186663;23;20005;-84
2021/05/05 08:01:59;;;;;;;5.50;4.68;;;6.70;99.90;;;7.57;83.23;99240.59;6188114;23;20012;-80
2021/05/05 08:04:25;;;;;;;7.05;4.78;;;6.60;99.90;;;7.47;83.80;99255.13;6188458;23;20005;-81
2021/05/05 08:06:51;;;;;;;5.90;4.63;;;6.50;99.90;;;7.60;84.19;99259.31;6188177;23;20015;-82
2021/05/05 08:09:17;;;;;;;7.15;5.85;;;6.40;99.90;;;7.35;84.96;99256.09;6190015;23;20363;-83
2021/05/05 08:11:43;;;;;;;7.43;5.25;;;6.40;99.90;;;7.25;85.80;99259.50;6188344;23;20048;-81
2021/05/05 08:14:10;;;;;;;8.45;6.25;;;6.30;99.90;;;7.04;85.92;99253.53;6189247;23;20009;-78
2021/05/05 08:16:38;;;;;;;7.93;6.38;;;6.20;99.90;;;7.41;85.37;99253.81;6162559;23;20092;-82
2021/05/05 08:19:04;;;;;;;9.13;7.88;;;6.20;99.90;;;7.83;85.19;99268.38;6187837;23;20009;-81
2021/05/05 08:21:30;;;;;;;8.27;7.25;;;6.50;99.90;;;8.15;82.82;99265.31;6188685;23;20012;-83
2021/05/05 08:23:58;;;;;;;9.25;7.72;;;6.90;99.90;;;8.31;82.49;99269.56;6189436;23;20451;-82
2021/05/05 08:26:27;;;;;;;9.65;7.70;;;7.20;99.90;;;8.97;80.75;99273.56;6188484;23;20013;-81
2021/05/05 08:28:53;;;;;;;12.32;8.10;;;7.60;99.90;;;9.22;79.04;99271.84;6189851;23;20005;-79
2021/05/05 08:31:19;;;;;;;10.32;7.00;;;8.00;99.90;;;9.41;77.37;99271.63;6189717;23;20498;-79
2021/05/05 08:33:45;;;;;;;8.88;7.13;;;8.30;99.90;;;9.76;77.21;99273.16;6187856;23;20036;-80
2021/05/05 08:36:11;;;;;;;9.43;7.07;;;8.70;99.90;;;10.43;75.71;99273.66;6188045;23;20033;-77
2021/05/05 08:38:37;;;;;;;6.97;6.25;;;9.20;99.90;;;10.85;72.76;99273.06;6188626;23;20072;-79
2021/05/05 08:41:05;;;;;;;7.53;5.32;;;9.60;99.90;;;10.86;72.70;99277.44;6187422;23;20005;-79
2021/05/05 08:43:34;;;;;;;5.95;4.57;;;9.70;99.90;;;11.37;70.91;99288.34;6173202;23;19997;-79
2021/05/05 08:46:08;;;;;;;6.03;4.53;;;9.90;99.90;;;11.40;69.60;99281.97;6205522;23;20043;-81
2021/05/05 08:48:36;;;;;;;11.18;5.30;;;10.00;99.90;;;11.05;70.38;99277.91;6190228;23;20304;-79
2021/05/05 08:51:08;;;;;;;6.25;4.20;;;9.80;99.90;;;10.73;70.30;99278.97;6188462;23;20024;-79
2021/05/05 08:53:35;;;;;;;5.97;4.25;;;9.50;99.90;;;9.77;74.46;99280.31;6189131;23;20009;-83
2021/05/05 08:56:01;;;;;;;6.45;4.45;;;9.00;99.90;;;9.11;77.17;99284.06;6187887;23;20093;-84
2021/05/05 08:58:28;;;;;;;7.13;3.85;;;8.50;99.90;;;10.10;74.73;99287.75;6187319;23;20009;-82
2021/05/05 09:00:54;;;;;;;6.60;4.45;;;8.80;99.90;;;10.50;73.76;99279.25;6163442;23;20016;-81
2021/05/05 09:03:40;;;;;;;5.85;3.53;;;9.10;99.90;;;10.31;71.56;99287.91;6188309;23;20009;-80
2021/05/05 09:06:07;;;;;;;6.78;4.05;;;9.20;99.90;;;10.38;70.99;99293.53;6189437;23;20005;-80
2021/05/05 09:08:35;;;;;;;5.78;3.92;;;9.40;99.90;;;10.63;70.37;99293.72;6190086;23;20036;-80
2021/05/05 09:11:11;;;;;;;4.90;3.45;;;9.60;99.90;;;10.90;69.94;99300.59;6187403;23;20001;-80
2021/05/05 09:13:57;;;;;;;4.88;2.42;;;9.60;99.90;;;10.88;68.69;99308.59;6190104;23;20102;-78
2021/05/05 09:16:31;;;;;;;5.88;2.97;;;9.70;99.90;;;10.27;71.84;99306.66;6189331;23;20001;-80
2021/05/05 09:19:04;;;;;;;5.15;2.40;;;9.30;99.90;;;9.70;71.15;99303.34;6188877;23;20499;-81
2021/05/05 09:21:33;;;;;;;5.55;2.72;;;9.00;99.90;;;9.49;70.97;99308.75;6163341;23;20013;-79
2021/05/05 09:24:27;;;;;;;5.15;2.80;;;8.70;99.90;;;9.89;71.35;99311.50;6189830;23;20387;-82
2021/05/05 09:27:04;;;;;;;4.78;2.72;;;8.80;99.90;;;10.38;69.32;99311.09;6189737;23;20012;-81
2021/05/05 09:29:47;;;;;;;5.20;3.45;;;9.10;99.90;;;10.24;68.56;99304.63;6189835;23;20028;-79
2021/05/05 09:32:18;;;;;;;7.22;3.67;;;9.40;99.90;;;10.40;69.54;99314.28;6191574;23;20005;-79
2021/05/05 09:35:05;;;;;;;6.70;3.88;;;9.30;99.90;;;10.19;70.41;99313.34;6188968;23;20032;-80
2021/05/05 09:37:32;;;;;;;8.30;3.60;;;9.20;99.90;;;9.92;68.90;99316.28;6189856;23;20005;-80
2021/05/05 09:40:11;;;;;;;7.82;4.10;;;9.10;99.90;;;10.20;66.76;99306.59;6188418;23;20012;-81
2021/05/05 09:42:38;;;;;;;10.88;5.63;;;9.00;99.90;;;10.45;68.34;99313.13;6190489;23;20005;-79
2021/05/05 09:45:12;;;;;;;7.22;4.13;;;9.10;99.90;;;10.41;67.56;99317.88;6163880;23;20312;-81
2021/05/05 09:48:06;;;;;;;8.38;4.93;;;9.10;99.90;;;10.30;67.46;99320.63;6190186;23;20001;-82
2021/05/05 09:50:38;;;;;;;4.93;2.95;;;9.10;99.90;;;10.38;67.19;99318.66;6181278;23;20442;-83
2021/05/05 09:53:32;;;;;;;7.60;3.63;;;9.20;99.90;;;10.86;67.35;99322.13;6186395;23;20450;-83
2021/05/05 09:55:57;;;;;;;7.15;3.10;;;9.40;99.90;;;10.83;64.67;99334.06;6184920;23;20071;-80
2021/05/05 09:58:37;;;;;;;8.15;3.05;;;9.70;99.90;;;10.51;66.43;99329.13;6186280;23;20029;-82
2021/05/05 10:01:07;;;;;;;7.90;3.60;;;9.50;99.90;;;10.07;68.75;99333.97;6186084;23;20005;-82
2021/05/05 10:03:56;;;;;;;9.00;3.20;;;9.20;99.90;;;9.81;68.60;99340.50;6184500;23;20438;-82
2021/05/05 10:06:28;;;;;;;9.27;7.65;;;8.90;99.90;;;9.51;70.63;99343.41;6184458;23;20029;-80
2021/05/05 10:09:13;;;;;;;8.90;3.80;;;8.60;99.90;;;9.25;71.69;99342.69;6159721;23;20009;-83
2021/05/05 10:11:46;;;;;;;10.38;4.07;;;8.40;99.90;;;8.96;72.04;99345.16;6184929;23;20001;-81
2021/05/05 10:14:17;;;;;;;8.25;4.25;;;8.10;99.90;;;9.14;72.18;99361.28;6187105;23;20009;-81
2021/05/05 10:16:52;;;;;;;8.75;4.35;;;8.10;99.90;;;9.81;67.91;99326.56;6187223;23;20073;-83
2021/05/05 10:19:26;;;;;;;8.18;4.43;;;8.60;99.90;;;9.45;68.89;99364.44;6185193;23;20005;-82
2021/05/05 10:21:55;;;;;;;6.65;4.20;;;8.60;99.90;;;9.33;69.52;99373.06;6185267;23;20036;-81
2021/05/05 10:24:24;;;;;;;8.02;4.97;;;8.40;99.90;;;9.22;69.64;99380.50;6190903;23;20005;-82
2021/05/05 10:26:52;;;;;;;7.25;4.45;;;8.30;99.90;;;9.74;69.45;99378.66;6186047;23;20431;-80
2021/05/05 10:29:19;;;;;;;13.30;4.72;;;8.50;99.90;;;10.57;64.27;99379.81;6184333;23;20001;-80
2021/05/05 10:32:05;;;;;;;8.88;3.60;;;9.20;99.90;;;10.37;64.68;99382.03;6186809;23;20001;-79
2021/05/05 10:34:31;;;;;;;7.25;3.38;;;9.60;99.90;;;10.45;61.90;99388.50;6186936;23;20016;-81
2021/05/05 10:37:01;;;;;;;7.00;3.58;;;9.60;99.90;;;10.25;63.30;99385.16;6160253;23;20012;-82
2021/05/05 10:39:39;;;;;;;6.78;3.08;;;9.40;99.90;;;10.65;63.17;99386.25;6184956;23;20372;-80
2021/05/05 10:42:26;;;;;;;5.90;2.97;;;9.70;99.90;;;11.23;61.17;99400.13;6185399;23;20041;-81
2021/05/05 10:44:59;;;;;;;6.55;2.60;;;10.00;99.90;;;11.22;60.39;99384.56;6159549;23;20071;-82
2021/05/05 10:47:34;;;;;;;6.40;2.58;;;10.10;99.90;;;11.59;60.96;99396.28;6189984;23;20012;-80